createdAt,value
2018-12-31T00:01:50.966Z,1.60
2018-12-31T00:04:19.664Z,1.80
2018-12-31T00:06:48.378Z,1.37
2018-12-31T00:09:17.030Z,1.70
2018-12-31T00:11:46.300Z,1.63
2018-12-31T00:14:15.579Z,1.47
2018-12-31T00:16:44.983Z,1.63
2018-12-31T00:19:13.634Z,1.50
2018-12-31T00:21:42.403Z,1.70
2018-12-31T00:24:11.161Z,1.37
2018-12-31T00:26:39.894Z,1.73
2018-12-31T00:29:08.735Z,1.07
2018-12-31T00:31:39.516Z,1.20
2018-12-31T00:34:08.252Z,1.77
2018-12-31T00:36:37.653Z,2.43
2018-12-31T00:39:07.399Z,1.63
2018-12-31T00:41:36.151Z,1.90
2018-12-31T00:44:05.142Z,2.13
2018-12-31T00:46:34.085Z,1.03
2018-12-31T00:49:02.864Z,1.43
2018-12-31T00:51:31.871Z,1.10
2018-12-31T00:54:00.919Z,1.30
2018-12-31T00:56:30.255Z,1.73
2018-12-31T00:58:58.947Z,1.83
2018-12-31T01:01:28.063Z,1.87
2018-12-31T01:03:56.974Z,1.93
2018-12-31T01:06:25.947Z,0.50
2018-12-31T01:08:54.678Z,1.03
2018-12-31T01:11:23.334Z,1.40
2018-12-31T01:13:52.003Z,1.80
2018-12-31T01:16:20.692Z,1.57
2018-12-31T01:18:49.731Z,1.30
2018-12-31T01:21:18.764Z,2.27
2018-12-31T01:23:47.468Z,1.70
2018-12-31T01:26:16.332Z,1.10
2018-12-31T01:28:45.303Z,0.90
2018-12-31T01:31:14.185Z,1.80
2018-12-31T01:33:42.910Z,1.97
2018-12-31T01:36:12.067Z,1.97
2018-12-31T01:38:40.821Z,1.50
2018-12-31T01:41:10.062Z,1.03
2018-12-31T01:43:39.156Z,2.10
2018-12-31T01:46:07.994Z,1.50
2018-12-31T01:48:36.694Z,1.87
2018-12-31T01:51:11.325Z,1.73
2018-12-31T01:53:35.830Z,1.50
2018-12-31T01:56:04.512Z,2.10
2018-12-31T01:58:33.464Z,1.43
2018-12-31T02:01:02.163Z,1.13
2018-12-31T02:03:30.855Z,1.70
2018-12-31T02:05:59.823Z,1.47
2018-12-31T02:08:28.547Z,1.97
2018-12-31T02:10:57.803Z,1.10
2018-12-31T02:13:26.522Z,1.90
2018-12-31T02:15:55.571Z,2.00
2018-12-31T02:18:24.307Z,1.77
2018-12-31T02:20:53.347Z,2.80
2018-12-31T02:23:21.998Z,1.47
2018-12-31T02:25:50.680Z,2.23
2018-12-31T02:28:19.366Z,1.73
2018-12-31T02:30:48.703Z,1.40
2018-12-31T02:33:17.918Z,1.40
2018-12-31T02:35:46.882Z,1.90
2018-12-31T02:38:15.783Z,1.80
2018-12-31T02:40:44.731Z,1.77
2018-12-31T02:43:13.435Z,1.53
2018-12-31T02:45:42.084Z,1.63
2018-12-31T02:48:11.206Z,1.53
2018-12-31T02:50:39.894Z,1.80
2018-12-31T02:53:08.594Z,1.43
2018-12-31T02:55:37.623Z,2.13
2018-12-31T02:58:06.385Z,2.13
2018-12-31T03:00:35.124Z,1.10
2018-12-31T03:03:04.401Z,1.23
2018-12-31T03:05:33.037Z,1.43
2018-12-31T03:08:01.771Z,1.57
2018-12-31T03:10:30.503Z,1.90
2018-12-31T03:12:59.204Z,2.37
2018-12-31T03:15:27.880Z,1.63
2018-12-31T03:17:56.584Z,1.07
2018-12-31T03:20:25.624Z,1.60
2018-12-31T03:22:54.624Z,2.20
2018-12-31T03:25:24.064Z,1.40
2018-12-31T03:27:52.733Z,1.77
2018-12-31T03:30:21.847Z,2.10
2018-12-31T03:32:50.537Z,1.60
2018-12-31T03:35:19.224Z,2.30
2018-12-31T03:37:50.224Z,2.40
2018-12-31T03:40:18.954Z,2.57
2018-12-31T03:42:48.096Z,2.10
2018-12-31T03:45:16.976Z,2.27
2018-12-31T03:47:46.193Z,2.03
2018-12-31T03:50:15.329Z,1.87
2018-12-31T03:52:44.021Z,2.73
2018-12-31T03:55:12.733Z,2.17
2018-12-31T03:57:41.387Z,1.43
2018-12-31T04:00:10.081Z,2.83
2018-12-31T04:02:38.763Z,2.70
2018-12-31T04:05:07.536Z,2.00
2018-12-31T04:07:36.233Z,2.47
2018-12-31T04:10:05.196Z,2.43
2018-12-31T04:12:33.925Z,2.97
2018-12-31T04:15:02.859Z,2.83
2018-12-31T04:17:31.511Z,2.63
2018-12-31T04:20:00.187Z,2.77
2018-12-31T04:22:29.233Z,2.97
2018-12-31T04:24:57.870Z,2.57
2018-12-31T04:27:26.907Z,2.80
2018-12-31T04:29:55.575Z,2.30
2018-12-31T04:32:24.515Z,3.13
2018-12-31T04:34:53.601Z,2.80
2018-12-31T04:37:22.734Z,3.37
2018-12-31T04:39:51.527Z,2.90
2018-12-31T04:42:20.215Z,3.03
2018-12-31T04:44:49.173Z,2.30
2018-12-31T04:47:17.919Z,2.80
2018-12-31T04:49:58.905Z,2.80
2018-12-31T04:52:27.569Z,2.20
2018-12-31T04:54:56.255Z,3.50
2018-12-31T04:57:24.940Z,2.80
2018-12-31T04:59:53.611Z,2.37
2018-12-31T05:02:22.320Z,2.80
2018-12-31T05:04:51.284Z,2.90
2018-12-31T05:07:19.988Z,2.70
2018-12-31T05:09:48.679Z,2.67
2018-12-31T05:12:17.367Z,2.63
2018-12-31T05:14:46.030Z,2.37
2018-12-31T05:17:14.733Z,3.13
2018-12-31T05:19:43.768Z,3.13
2018-12-31T05:22:13.011Z,3.80
2018-12-31T05:24:41.703Z,3.83
2018-12-31T05:27:10.675Z,3.77
2018-12-31T05:29:39.406Z,3.67
2018-12-31T05:32:08.087Z,3.60
2018-12-31T05:34:36.765Z,4.00
2018-12-31T05:37:05.804Z,3.60
2018-12-31T05:39:34.436Z,3.53
2018-12-31T05:42:03.422Z,4.23
2018-12-31T05:44:32.476Z,3.63
2018-12-31T05:47:01.672Z,3.60
2018-12-31T05:49:30.680Z,3.73
2018-12-31T05:51:59.415Z,3.83
2018-12-31T05:54:28.097Z,4.27
2018-12-31T05:56:57.461Z,3.60
2018-12-31T05:59:26.433Z,4.33
2018-12-31T06:01:55.118Z,3.67
2018-12-31T06:04:23.988Z,3.33
2018-12-31T06:06:52.711Z,4.70
2018-12-31T06:09:21.856Z,4.80
2018-12-31T06:11:50.552Z,4.67
2018-12-31T06:14:19.476Z,4.53
2018-12-31T06:16:48.399Z,3.90
2018-12-31T06:19:17.465Z,3.77
2018-12-31T06:21:46.105Z,4.47
2018-12-31T06:24:15.148Z,3.53
2018-12-31T06:26:43.789Z,4.33
2018-12-31T06:29:12.766Z,3.80
2018-12-31T06:31:41.761Z,3.90
2018-12-31T06:34:10.475Z,4.43
2018-12-31T06:36:39.185Z,4.27
2018-12-31T06:39:08.527Z,4.10
2018-12-31T06:41:37.240Z,3.13
2018-12-31T06:44:06.219Z,3.80
2018-12-31T06:46:35.281Z,3.77
2018-12-31T06:49:03.939Z,4.40
2018-12-31T06:51:32.568Z,4.50
2018-12-31T06:54:01.305Z,5.23
2018-12-31T06:56:30.250Z,4.73
2018-12-31T06:58:59.328Z,4.63
2018-12-31T07:01:28.077Z,5.07
2018-12-31T07:03:56.759Z,5.03
2018-12-31T07:06:25.800Z,4.87
2018-12-31T07:08:55.190Z,4.33
2018-12-31T07:11:23.854Z,4.53
2018-12-31T07:13:52.990Z,4.90
2018-12-31T07:16:21.745Z,4.73
2018-12-31T07:18:50.415Z,4.67
2018-12-31T07:21:19.116Z,4.70
2018-12-31T07:23:48.364Z,4.80
2018-12-31T07:26:17.431Z,5.20
2018-12-31T07:28:46.091Z,5.10
2018-12-31T07:31:15.073Z,4.73
2018-12-31T07:33:44.318Z,5.10
2018-12-31T07:36:12.978Z,5.00
2018-12-31T07:38:41.988Z,4.00
2018-12-31T07:41:10.988Z,5.03
2018-12-31T07:43:39.671Z,4.87
2018-12-31T07:46:08.638Z,4.07
2018-12-31T07:48:37.708Z,4.97
2018-12-31T07:51:06.412Z,4.90
2018-12-31T07:53:35.130Z,5.13
2018-12-31T07:56:03.792Z,5.70
2018-12-31T07:58:32.467Z,5.30
2018-12-31T08:01:01.680Z,4.50
2018-12-31T08:03:30.359Z,4.57
2018-12-31T08:05:59.339Z,5.50
2018-12-31T08:08:28.308Z,4.10
2018-12-31T08:10:57.018Z,5.33
2018-12-31T08:13:26.004Z,4.37
2018-12-31T08:15:54.695Z,4.80
2018-12-31T08:18:23.740Z,4.90
2018-12-31T08:20:52.378Z,4.63
2018-12-31T08:23:21.308Z,5.00
2018-12-31T08:25:50.466Z,6.00
2018-12-31T08:28:19.405Z,4.50
2018-12-31T08:30:48.034Z,3.87
2018-12-31T08:33:17.007Z,3.77
2018-12-31T08:35:45.748Z,4.37
2018-12-31T08:38:14.747Z,5.00
2018-12-31T08:40:43.411Z,4.63
2018-12-31T08:43:12.117Z,3.70
2018-12-31T08:45:41.097Z,5.63
2018-12-31T08:48:09.814Z,5.27
2018-12-31T08:50:38.578Z,4.00
2018-12-31T08:53:07.216Z,4.87
2018-12-31T08:55:35.945Z,4.30
2018-12-31T08:58:04.638Z,3.90
2018-12-31T09:00:33.632Z,4.10
2018-12-31T09:03:02.340Z,4.67
2018-12-31T09:05:31.022Z,3.93
2018-12-31T09:08:00.047Z,4.20
2018-12-31T09:10:28.800Z,4.03
2018-12-31T09:12:57.471Z,4.57
2018-12-31T09:15:26.205Z,4.07
2018-12-31T09:17:55.292Z,4.67
2018-12-31T09:20:23.966Z,3.93
2018-12-31T09:22:52.663Z,4.10
2018-12-31T09:25:21.330Z,6.07
2018-12-31T09:27:49.993Z,3.83
2018-12-31T09:30:18.641Z,3.77
2018-12-31T09:32:47.416Z,5.03
2018-12-31T09:35:16.609Z,3.43
2018-12-31T09:37:45.815Z,3.20
2018-12-31T09:40:14.482Z,4.00
2018-12-31T09:42:43.145Z,3.47
2018-12-31T09:45:11.848Z,3.77
2018-12-31T09:47:40.553Z,4.17
2018-12-31T09:50:09.231Z,3.33
2018-12-31T09:52:37.936Z,2.87
2018-12-31T09:55:06.683Z,4.17
2018-12-31T09:57:36.392Z,3.77
2018-12-31T10:00:05.867Z,3.50
2018-12-31T10:02:34.589Z,3.73
2018-12-31T10:05:03.282Z,3.53
2018-12-31T10:07:32.034Z,4.17
2018-12-31T10:10:00.785Z,3.30
2018-12-31T10:12:29.991Z,4.50
2018-12-31T10:14:58.636Z,3.90
2018-12-31T10:17:27.389Z,4.33
2018-12-31T10:19:56.331Z,3.67
2018-12-31T10:22:25.128Z,3.73
2018-12-31T10:24:53.834Z,3.47
2018-12-31T10:27:23.508Z,4.37
2018-12-31T10:29:52.452Z,3.63
2018-12-31T10:32:21.198Z,4.10
2018-12-31T10:34:50.000Z,3.93
2018-12-31T10:37:18.952Z,3.90
2018-12-31T10:39:47.704Z,3.20
2018-12-31T10:42:16.917Z,4.10
2018-12-31T10:44:45.707Z,2.93
2018-12-31T10:47:14.436Z,4.80
2018-12-31T10:49:43.410Z,5.30
2018-12-31T10:52:12.123Z,3.83
2018-12-31T10:54:40.803Z,3.47
2018-12-31T10:57:10.343Z,3.63
2018-12-31T10:59:39.027Z,4.53
2018-12-31T11:02:07.739Z,4.20
2018-12-31T11:04:36.468Z,3.87
2018-12-31T11:07:05.168Z,3.10
2018-12-31T11:09:34.097Z,3.37
2018-12-31T11:12:03.175Z,3.63
2018-12-31T11:14:31.940Z,3.20
2018-12-31T11:17:00.612Z,3.20
2018-12-31T11:19:29.640Z,3.77
2018-12-31T11:21:58.432Z,3.47
2018-12-31T11:24:27.318Z,3.63
2018-12-31T11:26:55.970Z,3.87
2018-12-31T11:29:24.663Z,3.37
2018-12-31T11:31:53.687Z,5.17
2018-12-31T11:34:30.783Z,2.37
2018-12-31T11:37:00.473Z,3.57
2018-12-31T11:39:30.394Z,3.40
2018-12-31T11:41:59.120Z,2.77
2018-12-31T11:44:28.863Z,3.70
2018-12-31T11:46:57.530Z,3.07
2018-12-31T11:49:26.787Z,3.27
2018-12-31T11:51:55.685Z,3.03
2018-12-31T11:54:24.331Z,2.97
2018-12-31T11:59:29.443Z,2.80
2018-12-31T12:01:58.461Z,2.87
2018-12-31T12:04:27.231Z,3.53
2018-12-31T12:06:56.299Z,2.80
2018-12-31T12:09:25.958Z,3.57
2018-12-31T12:11:54.935Z,3.03
2018-12-31T12:14:23.667Z,3.27
2018-12-31T12:16:53.019Z,7.00
2018-12-31T12:19:21.807Z,3.37
2018-12-31T12:21:50.538Z,3.27
2018-12-31T12:24:19.241Z,2.90
2018-12-31T12:26:48.267Z,4.80
2018-12-31T12:29:17.448Z,2.97
2018-12-31T12:31:46.340Z,3.27
2018-12-31T12:34:15.335Z,3.30
2018-12-31T12:36:43.969Z,3.17
2018-12-31T12:39:12.695Z,3.37
2018-12-31T12:41:41.771Z,3.30
2018-12-31T12:44:11.025Z,3.30
2018-12-31T12:46:40.218Z,3.93
2018-12-31T12:49:09.405Z,3.47
2018-12-31T12:51:38.498Z,2.67
2018-12-31T12:54:07.519Z,3.07
2018-12-31T12:56:36.547Z,3.50
2018-12-31T12:59:05.617Z,3.07
2018-12-31T13:01:35.416Z,3.20
2018-12-31T13:04:04.416Z,3.23
2018-12-31T13:06:34.130Z,2.90
2018-12-31T13:09:22.656Z,3.10
2018-12-31T13:11:51.479Z,3.30
2018-12-31T13:14:20.295Z,3.70
2018-12-31T13:16:49.324Z,3.77
2018-12-31T13:19:18.259Z,4.40
2018-12-31T13:21:47.345Z,4.27
2018-12-31T13:24:16.677Z,3.77
2018-12-31T13:26:46.505Z,3.13
2018-12-31T13:29:15.264Z,3.77
2018-12-31T13:31:43.964Z,3.00
2018-12-31T13:34:12.731Z,2.87
2018-12-31T13:36:41.439Z,3.47
2018-12-31T13:39:10.126Z,3.23
2018-12-31T13:41:38.931Z,2.57
2018-12-31T13:44:07.940Z,3.53
2018-12-31T13:46:36.682Z,3.77
2018-12-31T13:49:05.376Z,3.50
2018-12-31T13:51:34.648Z,3.03
2018-12-31T13:54:03.950Z,3.57
2018-12-31T13:56:32.970Z,3.20
2018-12-31T13:59:02.014Z,3.17
2018-12-31T14:01:30.665Z,2.80
2018-12-31T14:03:59.548Z,3.23
2018-12-31T14:06:28.520Z,2.43
2018-12-31T14:08:57.629Z,2.97
2018-12-31T14:11:26.313Z,2.83
2018-12-31T14:13:55.183Z,2.77
2018-12-31T14:16:24.868Z,2.80
2018-12-31T14:18:53.856Z,3.23
2018-12-31T14:21:22.555Z,2.90
2018-12-31T14:23:51.346Z,3.40
2018-12-31T14:26:20.101Z,3.43
2018-12-31T14:28:49.530Z,3.57
2018-12-31T14:31:18.574Z,2.70
2018-12-31T14:33:47.283Z,3.40
2018-12-31T14:36:16.026Z,2.80
2018-12-31T14:38:44.815Z,2.60
2018-12-31T14:41:14.494Z,2.27
2018-12-31T14:43:43.203Z,2.40
2018-12-31T14:46:12.016Z,2.53
2018-12-31T14:48:40.824Z,2.83
2018-12-31T14:51:09.883Z,3.10
2018-12-31T14:53:38.943Z,2.67
2018-12-31T14:56:07.685Z,3.27
2018-12-31T14:58:36.390Z,2.60
2018-12-31T15:01:05.161Z,2.27
2018-12-31T15:03:33.979Z,3.07
2018-12-31T15:06:03.157Z,2.63
2018-12-31T15:08:31.974Z,2.57
2018-12-31T15:11:00.678Z,2.80
2018-12-31T15:13:30.080Z,2.93
2018-12-31T15:15:58.746Z,2.93
2018-12-31T15:18:27.934Z,3.13
2018-12-31T15:20:56.680Z,2.80
2018-12-31T15:23:26.371Z,2.73
2018-12-31T15:25:55.100Z,3.50
2018-12-31T15:28:24.011Z,3.07
2018-12-31T15:30:53.117Z,6.03
2018-12-31T15:33:21.977Z,4.17
2018-12-31T15:35:50.643Z,4.80
2018-12-31T15:38:19.397Z,3.63
2018-12-31T15:40:48.128Z,5.83
2018-12-31T15:43:17.457Z,4.70
2018-12-31T15:45:46.443Z,5.43
2018-12-31T15:48:15.531Z,7.63
2018-12-31T15:50:44.250Z,6.17
2018-12-31T15:53:13.172Z,5.80
2018-12-31T15:55:42.066Z,5.67
2018-12-31T15:58:11.070Z,4.50
2018-12-31T16:00:39.936Z,11.33
2018-12-31T16:03:08.787Z,7.03
2018-12-31T16:05:37.830Z,7.30
2018-12-31T16:08:06.718Z,70.43
2018-12-31T16:10:35.363Z,17.10
2018-12-31T16:13:04.435Z,12.47
2018-12-31T16:15:33.169Z,8.23
2018-12-31T16:18:01.926Z,34.77
2018-12-31T16:20:31.285Z,14.73
2018-12-31T16:23:00.271Z,12.93
2018-12-31T16:25:29.042Z,11.07
2018-12-31T16:27:58.059Z,10.17
2018-12-31T16:30:27.274Z,9.17
2018-12-31T16:32:56.007Z,11.33
2018-12-31T16:35:25.285Z,11.23
2018-12-31T16:37:54.012Z,10.90
2018-12-31T16:40:22.697Z,10.43
2018-12-31T16:42:51.374Z,11.17
2018-12-31T16:45:20.403Z,13.13
2018-12-31T16:47:49.161Z,13.97
2018-12-31T16:50:17.840Z,14.10
2018-12-31T16:52:46.563Z,12.50
2018-12-31T16:55:15.561Z,13.80
2018-12-31T16:57:44.242Z,11.97
2018-12-31T17:00:13.268Z,18.10
2018-12-31T17:02:41.988Z,27.97
2018-12-31T17:05:10.684Z,15.90
2018-12-31T17:07:39.382Z,21.30
2018-12-31T17:10:09.816Z,17.13
2018-12-31T17:12:39.221Z,18.13
2018-12-31T17:15:07.967Z,18.50
2018-12-31T17:17:36.691Z,17.13
2018-12-31T17:20:06.229Z,18.03
2018-12-31T17:22:34.998Z,30.17
2018-12-31T17:25:03.952Z,23.77
2018-12-31T17:27:33.405Z,23.97
2018-12-31T17:30:02.183Z,22.80
2018-12-31T17:32:30.870Z,27.43
2018-12-31T17:34:59.799Z,27.57
2018-12-31T17:37:28.864Z,28.27
2018-12-31T17:39:57.621Z,25.27
2018-12-31T17:42:26.673Z,23.43
2018-12-31T17:44:55.415Z,22.53
2018-12-31T17:47:25.266Z,22.63
2018-12-31T17:49:54.419Z,22.37
2018-12-31T17:52:23.113Z,24.10
2018-12-31T17:54:51.785Z,23.33
2018-12-31T17:57:20.481Z,21.23
2018-12-31T17:59:49.707Z,23.73
2018-12-31T18:02:18.451Z,49.53
2018-12-31T18:04:53.058Z,22.43
2018-12-31T18:07:22.216Z,22.27
2018-12-31T18:09:50.876Z,25.57
2018-12-31T18:12:19.511Z,21.27
2018-12-31T18:14:48.491Z,22.70
2018-12-31T18:17:17.248Z,26.97
2018-12-31T18:19:45.910Z,37.03
2018-12-31T18:22:14.626Z,120.17
2018-12-31T18:24:43.583Z,47.07
2018-12-31T18:27:12.316Z,43.77
2018-12-31T18:29:41.321Z,82.57
2018-12-31T18:32:10.112Z,57.17
2018-12-31T18:34:38.880Z,31.17
2018-12-31T18:37:07.539Z,39.07
2018-12-31T18:39:36.230Z,28.03
2018-12-31T18:42:04.899Z,29.00
2018-12-31T18:44:33.612Z,28.93
2018-12-31T18:47:02.639Z,27.27
2018-12-31T18:49:31.408Z,29.63
2018-12-31T18:52:00.080Z,29.27
2018-12-31T18:54:28.985Z,34.93
2018-12-31T18:56:57.675Z,28.50
2018-12-31T18:59:26.340Z,30.40
2018-12-31T19:01:55.308Z,33.83
2018-12-31T19:04:24.031Z,29.93
2018-12-31T19:06:53.094Z,28.17
2018-12-31T19:09:21.818Z,37.40
2018-12-31T19:11:50.591Z,43.77
2018-12-31T19:14:19.295Z,39.27
2018-12-31T19:16:48.247Z,32.20
2018-12-31T19:19:17.478Z,44.83
2018-12-31T19:21:47.474Z,41.90
2018-12-31T19:24:16.552Z,37.23
2018-12-31T19:26:45.837Z,33.93
2018-12-31T19:29:14.576Z,40.33
2018-12-31T19:31:44.306Z,36.53
2018-12-31T19:34:13.180Z,37.33
2018-12-31T19:36:42.448Z,33.40
2018-12-31T19:39:11.196Z,26.33
2018-12-31T19:41:40.338Z,28.07
2018-12-31T19:44:09.040Z,24.60
2018-12-31T19:46:37.684Z,23.57
2018-12-31T19:49:06.812Z,21.77
2018-12-31T19:51:35.823Z,23.03
2018-12-31T19:54:04.755Z,27.93
2018-12-31T19:56:33.502Z,31.83
2018-12-31T19:59:02.741Z,35.33
2018-12-31T20:01:31.514Z,37.93
2018-12-31T20:04:00.179Z,54.40
2018-12-31T20:06:29.158Z,34.13
2018-12-31T20:08:58.210Z,33.90
2018-12-31T20:11:26.960Z,34.60
2018-12-31T20:13:55.910Z,27.37
2018-12-31T20:16:24.652Z,28.27
2018-12-31T20:18:53.319Z,44.40
2018-12-31T20:21:22.408Z,37.63
2018-12-31T20:23:51.599Z,42.60
2018-12-31T20:26:20.563Z,44.73
2018-12-31T20:28:49.519Z,42.07
2018-12-31T20:31:18.294Z,37.13
2018-12-31T20:33:47.428Z,44.70
2018-12-31T20:36:16.585Z,37.23
2018-12-31T20:38:47.033Z,43.27
2018-12-31T20:41:15.903Z,57.07
2018-12-31T20:43:44.942Z,55.17
2018-12-31T20:46:13.692Z,51.00
2018-12-31T20:48:42.923Z,60.67
2018-12-31T20:51:12.361Z,50.20
2018-12-31T20:53:41.089Z,71.40
2018-12-31T20:56:10.092Z,58.47
2018-12-31T20:58:38.764Z,108.07
2018-12-31T21:01:07.463Z,76.30
2018-12-31T21:03:55.655Z,55.83
2018-12-31T21:06:24.732Z,58.53
2018-12-31T21:08:54.120Z,70.63
2018-12-31T21:11:23.128Z,45.00
2018-12-31T21:13:52.176Z,56.37
2018-12-31T21:16:20.850Z,69.30
2018-12-31T21:18:49.832Z,56.07
2018-12-31T21:21:19.090Z,47.33
2018-12-31T21:23:48.072Z,196.53
2018-12-31T21:26:17.185Z,105.10
2018-12-31T21:28:46.134Z,94.20
2018-12-31T21:31:14.824Z,88.83
2018-12-31T21:33:44.090Z,39.47
2018-12-31T21:36:12.830Z,58.30
2018-12-31T21:38:41.514Z,57.17
2018-12-31T21:41:13.082Z,40.50
2018-12-31T21:43:42.295Z,48.87
2018-12-31T21:46:11.440Z,53.23
2018-12-31T21:48:40.457Z,49.83
2018-12-31T21:51:09.477Z,32.80
2018-12-31T21:53:38.123Z,36.40
2018-12-31T21:57:28.087Z,33.77
2018-12-31T21:59:57.538Z,38.87
2018-12-31T22:02:26.385Z,48.20
2018-12-31T22:04:55.423Z,53.90
2018-12-31T22:07:24.107Z,35.07
2018-12-31T22:09:52.800Z,38.90
2018-12-31T22:12:21.492Z,28.33
2018-12-31T22:14:50.499Z,51.23
2018-12-31T22:17:19.644Z,42.53
2018-12-31T22:19:48.697Z,67.60
2018-12-31T22:22:17.450Z,34.77
2018-12-31T22:24:46.149Z,33.87
2018-12-31T22:27:14.843Z,29.40
2018-12-31T22:29:43.517Z,26.90
2018-12-31T22:32:12.202Z,28.30
2018-12-31T22:34:40.984Z,24.00
2018-12-31T22:37:09.672Z,20.33
2018-12-31T22:39:38.359Z,21.40
2018-12-31T22:42:07.043Z,22.77
2018-12-31T22:44:36.342Z,26.67
2018-12-31T22:47:05.035Z,23.63
2018-12-31T22:49:33.711Z,22.13
2018-12-31T22:52:02.632Z,21.57
2018-12-31T22:54:31.579Z,21.43
2018-12-31T22:57:00.934Z,23.23
2018-12-31T22:59:29.594Z,20.93
2018-12-31T23:01:58.298Z,27.67
2018-12-31T23:04:27.040Z,30.57
2018-12-31T23:06:59.457Z,37.60
2018-12-31T23:09:28.114Z,80.00
2018-12-31T23:11:57.465Z,113.33
2018-12-31T23:14:26.440Z,167.40
2018-12-31T23:17:15.724Z,215.10
2018-12-31T23:19:44.708Z,286.10
2018-12-31T23:22:14.131Z,267.30
2018-12-31T23:24:43.550Z,293.97
2018-12-31T23:27:12.352Z,254.97
2018-12-31T23:29:41.156Z,310.07
2018-12-31T23:32:09.933Z,270.93
2018-12-31T23:34:38.902Z,205.10
2018-12-31T23:37:07.671Z,230.77
2018-12-31T23:39:36.336Z,170.80
2018-12-31T23:42:05.055Z,167.97
2018-12-31T23:44:34.002Z,160.50
2018-12-31T23:47:02.802Z,151.30
2018-12-31T23:49:31.833Z,142.20
2018-12-31T23:52:00.598Z,112.80
2018-12-31T23:54:29.608Z,114.57
2018-12-31T23:56:58.556Z,102.07
2018-12-31T23:59:27.546Z,89.97
